createdAt,value
2019-03-29T00:00:06.952Z,100705.05
2019-03-29T00:00:53.344Z,100710.16
2019-03-29T00:01:31.470Z,100703.66
2019-03-29T00:02:09.772Z,100707.16
2019-03-29T00:02:46.654Z,100699.86
2019-03-29T00:03:23.339Z,100699.64
2019-03-29T00:04:01.031Z,100700.38
2019-03-29T00:04:41.539Z,100707.63
2019-03-29T00:05:18.254Z,100700.41
2019-03-29T00:05:56.358Z,100717.05
2019-03-29T00:06:33.315Z,100711.90
2019-03-29T00:07:09.907Z,100716.50
2019-03-29T00:07:46.765Z,100712.98
2019-03-29T00:08:23.354Z,100712.98
2019-03-29T00:09:00.235Z,100722.69
2019-03-29T00:09:37.388Z,100722.91
2019-03-29T00:10:14.679Z,100722.91
2019-03-29T00:10:51.213Z,100714.33
2019-03-29T00:11:28.661Z,100723.92
2019-03-29T00:12:05.674Z,100722.53
2019-03-29T00:12:42.862Z,100731.40
2019-03-29T00:13:19.387Z,100727.86
2019-03-29T00:13:56.359Z,100729.71
2019-03-29T00:14:33.550Z,100728.36
2019-03-29T00:15:10.164Z,100727.52
2019-03-29T00:15:47.132Z,100736.38
2019-03-29T00:16:26.627Z,100730.68
2019-03-29T00:17:03.822Z,100734.44
2019-03-29T00:17:40.398Z,100734.95
2019-03-29T00:18:17.869Z,100736.25
2019-03-29T00:18:54.938Z,100734.86
2019-03-29T00:19:31.811Z,100733.77
2019-03-29T00:20:09.332Z,100739.09
2019-03-29T00:20:47.222Z,100739.09
2019-03-29T00:21:24.791Z,100733.34
2019-03-29T00:22:01.404Z,100733.34
2019-03-29T00:22:38.084Z,100736.80
2019-03-29T00:23:18.051Z,100739.20
2019-03-29T00:24:06.190Z,100738.36
2019-03-29T00:24:33.846Z,100743.20
2019-03-29T00:25:10.640Z,100742.11
2019-03-29T00:25:47.345Z,100747.41
2019-03-29T00:26:25.594Z,100747.41
2019-03-29T00:27:02.350Z,100751.29
2019-03-29T00:27:38.988Z,100751.29
2019-03-29T00:28:15.636Z,100756.05
2019-03-29T00:28:52.267Z,100759.22
2019-03-29T00:29:32.173Z,100762.41
2019-03-29T00:30:09.002Z,100758.27
2019-03-29T00:30:46.137Z,100756.91
2019-03-29T00:31:40.112Z,100760.72
2019-03-29T00:32:17.640Z,100767.16
2019-03-29T00:32:54.941Z,100765.76
2019-03-29T00:33:31.552Z,100769.27
2019-03-29T00:34:08.356Z,100758.24
2019-03-29T00:34:45.188Z,100767.61
2019-03-29T00:35:22.484Z,100764.11
2019-03-29T00:35:59.884Z,100762.00
2019-03-29T00:36:39.092Z,100767.56
2019-03-29T00:37:17.314Z,100767.56
2019-03-29T00:37:55.880Z,100765.61
2019-03-29T00:38:32.626Z,100765.61
2019-03-29T00:39:10.513Z,100772.95
2019-03-29T00:39:48.498Z,100769.40
2019-03-29T00:40:25.925Z,100783.27
2019-03-29T00:41:02.507Z,100781.55
2019-03-29T00:41:39.516Z,100776.03
2019-03-29T00:42:16.969Z,100776.03
2019-03-29T00:42:55.353Z,100774.31
2019-03-29T00:43:32.016Z,100769.95
2019-03-29T00:44:08.987Z,100782.25
2019-03-29T00:44:46.152Z,100782.25
2019-03-29T00:45:23.867Z,100783.28
2019-03-29T00:46:00.945Z,100784.39
2019-03-29T00:46:37.890Z,100784.39
2019-03-29T00:47:14.997Z,100785.69
2019-03-29T00:47:55.395Z,100785.69
2019-03-29T00:48:35.494Z,100788.89
2019-03-29T00:49:11.003Z,100778.61
2019-03-29T00:49:48.151Z,100792.05
2019-03-29T00:50:25.332Z,100791.69
2019-03-29T00:51:01.884Z,100783.81
2019-03-29T00:51:40.486Z,100793.09
2019-03-29T00:52:17.139Z,100790.82
2019-03-29T00:52:54.545Z,100785.84
2019-03-29T00:53:32.217Z,100789.23
2019-03-29T00:54:10.495Z,100796.47
2019-03-29T00:54:51.270Z,100789.06
2019-03-29T00:55:28.328Z,100794.05
2019-03-29T00:56:05.506Z,100793.44
2019-03-29T00:56:44.115Z,100797.54
2019-03-29T00:57:20.646Z,100797.41
2019-03-29T00:57:58.068Z,100798.58
2019-03-29T00:58:35.592Z,100800.89
2019-03-29T00:59:13.131Z,100808.16
2019-03-29T00:59:50.174Z,100805.69
2019-03-29T01:00:31.173Z,100804.58
2019-03-29T01:01:06.886Z,100812.66
2019-03-29T01:01:45.789Z,100815.67
2019-03-29T01:02:26.073Z,100817.28
2019-03-29T01:03:03.936Z,100814.19
2019-03-29T01:03:41.046Z,100817.05
2019-03-29T01:04:18.158Z,100818.28
2019-03-29T01:04:56.215Z,100819.59
2019-03-29T01:05:36.818Z,100819.22
2019-03-29T01:06:13.330Z,100825.07
2019-03-29T01:06:50.238Z,100824.07
2019-03-29T01:07:27.317Z,100822.61
2019-03-29T01:08:07.977Z,100822.97
2019-03-29T01:08:42.526Z,100820.73
2019-03-29T01:09:24.513Z,100817.89
2019-03-29T01:10:01.578Z,100823.70
2019-03-29T01:10:41.332Z,100826.16
2019-03-29T01:11:18.663Z,100826.19
2019-03-29T01:11:55.319Z,100825.93
2019-03-29T01:12:32.959Z,100828.42
2019-03-29T01:13:10.049Z,100822.60
2019-03-29T01:13:47.418Z,100828.88
2019-03-29T01:14:23.928Z,100827.16
2019-03-29T01:15:04.188Z,100823.97
2019-03-29T01:15:41.619Z,100826.05
2019-03-29T01:16:18.731Z,100826.92
2019-03-29T01:16:56.651Z,100826.48
2019-03-29T01:17:33.287Z,100823.45
2019-03-29T01:18:11.817Z,100829.40
2019-03-29T01:18:49.097Z,100826.92
2019-03-29T01:19:26.777Z,100827.80
2019-03-29T01:20:03.269Z,100827.52
2019-03-29T01:20:41.298Z,100829.95
2019-03-29T01:21:19.879Z,100832.11
2019-03-29T01:21:56.684Z,100828.28
2019-03-29T01:22:35.701Z,100833.08
2019-03-29T01:23:14.366Z,100832.61
2019-03-29T01:23:51.485Z,100828.62
2019-03-29T01:24:29.613Z,100827.06
2019-03-29T01:25:06.298Z,100827.14
2019-03-29T01:25:43.208Z,100834.27
2019-03-29T01:26:21.419Z,100834.62
2019-03-29T01:27:01.714Z,100836.33
2019-03-29T01:27:39.100Z,100833.77
2019-03-29T01:28:16.166Z,100836.32
2019-03-29T01:28:53.681Z,100836.75
2019-03-29T01:29:32.420Z,100840.19
2019-03-29T01:30:09.359Z,100837.06
2019-03-29T01:30:51.280Z,100842.81
2019-03-29T01:31:28.937Z,100838.03
2019-03-29T01:32:06.428Z,100833.23
2019-03-29T01:32:43.571Z,100836.58
2019-03-29T01:33:24.317Z,100835.37
2019-03-29T01:34:02.511Z,100840.91
2019-03-29T01:34:40.743Z,100836.13
2019-03-29T01:35:17.933Z,100837.87
2019-03-29T01:35:57.087Z,100837.61
2019-03-29T01:36:33.779Z,100834.94
2019-03-29T01:37:10.702Z,100843.77
2019-03-29T01:37:48.109Z,100842.12
2019-03-29T01:38:25.894Z,100841.63
2019-03-29T01:39:02.699Z,100844.22
2019-03-29T01:39:43.371Z,100844.04
2019-03-29T01:40:20.741Z,100844.09
2019-03-29T01:40:58.121Z,100848.73
2019-03-29T01:41:34.701Z,100845.69
2019-03-29T01:42:11.769Z,100845.12
2019-03-29T01:42:48.426Z,100846.63
2019-03-29T01:43:25.152Z,100844.14
2019-03-29T01:44:02.478Z,100846.47
2019-03-29T01:44:39.584Z,100854.08
2019-03-29T01:45:16.288Z,100847.56
2019-03-29T01:45:53.569Z,100850.24
2019-03-29T01:46:30.544Z,100849.54
2019-03-29T01:47:07.242Z,100846.34
2019-03-29T01:47:44.157Z,100852.45
2019-03-29T01:48:23.912Z,100852.02
2019-03-29T01:49:04.776Z,100855.31
2019-03-29T01:49:42.013Z,100847.05
2019-03-29T01:50:19.600Z,100854.56
2019-03-29T01:50:56.900Z,100850.24
2019-03-29T01:51:33.680Z,100851.08
2019-03-29T01:52:10.944Z,100851.27
2019-03-29T01:52:47.983Z,100848.43
2019-03-29T01:53:27.300Z,100857.11
2019-03-29T01:54:13.162Z,100854.70
2019-03-29T01:54:52.056Z,100858.79
2019-03-29T01:55:28.785Z,100851.84
2019-03-29T01:56:07.159Z,100855.36
2019-03-29T01:56:44.419Z,100863.53
2019-03-29T01:57:21.560Z,100857.84
2019-03-29T01:57:59.079Z,100862.16
2019-03-29T01:58:35.710Z,100859.03
2019-03-29T01:59:13.105Z,100864.77
2019-03-29T01:59:49.807Z,100863.91
2019-03-29T02:00:36.542Z,100862.78
2019-03-29T02:01:14.331Z,100862.95
2019-03-29T02:01:52.659Z,100864.47
2019-03-29T02:02:29.933Z,100861.09
2019-03-29T02:03:07.799Z,100866.77
2019-03-29T02:03:44.795Z,100864.98
2019-03-29T02:04:22.286Z,100864.33
2019-03-29T02:04:59.016Z,100863.67
2019-03-29T02:05:41.658Z,100864.89
2019-03-29T02:06:19.184Z,100867.61
2019-03-29T02:06:58.795Z,100867.05
2019-03-29T02:07:35.491Z,100866.64
2019-03-29T02:08:12.107Z,100867.53
2019-03-29T02:08:48.751Z,100868.42
2019-03-29T02:09:25.851Z,100866.41
2019-03-29T02:10:02.643Z,100867.00
2019-03-29T02:10:39.774Z,100858.38
2019-03-29T02:11:16.408Z,100862.77
2019-03-29T02:11:53.553Z,100861.13
2019-03-29T02:12:38.533Z,100863.68
2019-03-29T02:13:15.955Z,100860.42
2019-03-29T02:13:53.211Z,100859.23
2019-03-29T02:14:29.932Z,100859.76
2019-03-29T02:15:07.800Z,100863.58
2019-03-29T02:15:45.192Z,100857.72
2019-03-29T02:16:21.823Z,100858.23
2019-03-29T02:16:58.991Z,100864.07
2019-03-29T02:17:36.061Z,100860.90
2019-03-29T02:18:16.214Z,100859.59
2019-03-29T02:18:53.467Z,100856.34
2019-03-29T02:19:30.024Z,100863.30
2019-03-29T02:20:08.652Z,100863.80
2019-03-29T02:20:50.023Z,100860.52
2019-03-29T02:21:27.380Z,100858.37
2019-03-29T02:22:04.310Z,100857.04
2019-03-29T02:22:40.822Z,100855.68
2019-03-29T02:23:17.467Z,100853.86
2019-03-29T02:23:54.360Z,100856.74
2019-03-29T02:24:31.616Z,100854.36
2019-03-29T02:25:08.644Z,100855.30
2019-03-29T02:25:45.942Z,100851.77
2019-03-29T02:26:22.684Z,100860.53
2019-03-29T02:26:59.209Z,100853.93
2019-03-29T02:27:36.160Z,100855.75
2019-03-29T02:28:13.991Z,100857.46
2019-03-29T02:28:50.734Z,100856.55
2019-03-29T02:29:27.314Z,100860.77
2019-03-29T02:30:05.168Z,100854.61
2019-03-29T02:30:42.718Z,100861.44
2019-03-29T02:31:19.231Z,100862.35
2019-03-29T02:31:57.043Z,100861.21
2019-03-29T02:32:36.358Z,100857.00
2019-03-29T02:33:15.215Z,100860.27
2019-03-29T02:33:51.743Z,100862.52
2019-03-29T02:34:28.612Z,100860.42
2019-03-29T02:35:05.741Z,100860.63
2019-03-29T02:35:44.909Z,100862.79
2019-03-29T02:36:22.372Z,100861.59
2019-03-29T02:36:59.042Z,100854.58
2019-03-29T02:37:36.192Z,100851.51
2019-03-29T02:38:14.994Z,100855.64
2019-03-29T02:38:56.051Z,100854.84
2019-03-29T02:39:32.397Z,100853.45
2019-03-29T02:40:09.142Z,100856.81
2019-03-29T02:40:46.456Z,100852.11
2019-03-29T02:41:23.870Z,100851.75
2019-03-29T02:42:00.498Z,100856.25
2019-03-29T02:42:37.636Z,100853.69
2019-03-29T02:43:21.045Z,100859.77
2019-03-29T02:43:57.710Z,100860.87
2019-03-29T02:44:38.208Z,100856.30
2019-03-29T02:45:15.467Z,100861.45
2019-03-29T02:45:54.808Z,100855.03
2019-03-29T02:46:31.380Z,100852.59
2019-03-29T02:47:08.436Z,100858.56
2019-03-29T02:47:45.049Z,100854.63
2019-03-29T02:48:22.189Z,100857.89
2019-03-29T02:48:59.129Z,100864.84
2019-03-29T02:49:36.415Z,100859.47
2019-03-29T02:50:13.865Z,100863.58
2019-03-29T02:50:50.515Z,100857.08
2019-03-29T02:51:27.690Z,100862.11
2019-03-29T02:52:04.154Z,100857.73
2019-03-29T02:52:50.844Z,100856.97
2019-03-29T02:53:28.006Z,100859.77
2019-03-29T02:54:05.982Z,100864.61
2019-03-29T02:54:42.838Z,100863.48
2019-03-29T02:55:19.985Z,100861.49
2019-03-29T02:55:57.119Z,100864.14
2019-03-29T02:56:33.847Z,100856.97
2019-03-29T02:57:11.885Z,100862.47
2019-03-29T02:57:49.220Z,100862.31
2019-03-29T02:58:26.522Z,100861.00
2019-03-29T02:59:11.868Z,100861.88
2019-03-29T02:59:48.903Z,100862.84
2019-03-29T03:00:26.450Z,100866.31
2019-03-29T03:01:03.521Z,100864.40
2019-03-29T03:01:41.152Z,100864.56
2019-03-29T03:02:18.206Z,100868.16
2019-03-29T03:02:55.613Z,100869.22
2019-03-29T03:03:35.015Z,100863.01
2019-03-29T03:04:13.106Z,100868.86
2019-03-29T03:04:50.206Z,100868.38
2019-03-29T03:05:28.065Z,100860.87
2019-03-29T03:06:05.380Z,100859.47
2019-03-29T03:06:42.063Z,100858.84
2019-03-29T03:07:19.087Z,100851.64
2019-03-29T03:07:58.228Z,100854.70
2019-03-29T03:08:34.713Z,100853.78
2019-03-29T03:09:14.560Z,100852.00
2019-03-29T03:09:50.906Z,100858.92
2019-03-29T03:10:28.254Z,100856.39
2019-03-29T03:11:06.004Z,100857.26
2019-03-29T03:11:42.569Z,100859.25
2019-03-29T03:12:19.558Z,100866.55
2019-03-29T03:13:01.717Z,100858.03
2019-03-29T03:13:40.787Z,100864.72
2019-03-29T03:14:17.759Z,100866.20
2019-03-29T03:14:54.757Z,100867.44
2019-03-29T03:15:31.488Z,100865.11
2019-03-29T03:16:09.672Z,100861.69
2019-03-29T03:16:47.841Z,100864.08
2019-03-29T03:17:26.718Z,100860.49
2019-03-29T03:18:03.385Z,100858.15
2019-03-29T03:18:40.614Z,100860.16
2019-03-29T03:19:17.485Z,100858.38
2019-03-29T03:19:55.333Z,100855.16
2019-03-29T03:20:32.097Z,100859.83
2019-03-29T03:21:09.008Z,100850.81
2019-03-29T03:21:46.642Z,100849.66
2019-03-29T03:22:26.539Z,100856.30
2019-03-29T03:23:03.916Z,100852.50
2019-03-29T03:23:41.164Z,100853.41
2019-03-29T03:24:18.230Z,100861.40
2019-03-29T03:24:55.324Z,100859.49
2019-03-29T03:25:35.092Z,100858.33
2019-03-29T03:26:13.313Z,100854.97
2019-03-29T03:26:50.604Z,100859.81
2019-03-29T03:27:27.190Z,100860.40
2019-03-29T03:28:03.774Z,100862.05
2019-03-29T03:28:41.010Z,100856.70
2019-03-29T03:29:18.308Z,100857.45
2019-03-29T03:29:57.944Z,100855.09
2019-03-29T03:30:39.902Z,100854.44
2019-03-29T03:31:16.662Z,100854.48
2019-03-29T03:31:53.248Z,100860.56
2019-03-29T03:32:30.343Z,100858.69
2019-03-29T03:33:07.694Z,100859.52
2019-03-29T03:33:44.314Z,100855.59
2019-03-29T03:34:21.402Z,100854.13
2019-03-29T03:35:08.261Z,100854.31
2019-03-29T03:35:44.757Z,100858.92
2019-03-29T03:36:22.067Z,100855.81
2019-03-29T03:36:59.406Z,100850.80
2019-03-29T03:37:35.936Z,100853.44
2019-03-29T03:38:12.795Z,100849.39
2019-03-29T03:38:49.447Z,100858.78
2019-03-29T03:39:31.986Z,100852.86
2019-03-29T03:40:05.149Z,100848.55
2019-03-29T03:40:42.520Z,100853.02
2019-03-29T03:41:20.528Z,100853.64
2019-03-29T03:41:59.859Z,100847.25
2019-03-29T03:42:36.807Z,100844.05
2019-03-29T03:43:13.658Z,100849.73
2019-03-29T03:43:50.859Z,100851.98
2019-03-29T03:44:31.708Z,100846.78
2019-03-29T03:45:08.557Z,100838.94
2019-03-29T03:45:46.791Z,100846.30
2019-03-29T03:46:27.058Z,100844.56
2019-03-29T03:47:03.917Z,100842.16
2019-03-29T03:47:42.296Z,100835.12
2019-03-29T03:48:19.823Z,100834.88
2019-03-29T03:48:56.451Z,100837.13
2019-03-29T03:49:33.427Z,100835.27
2019-03-29T03:50:31.107Z,100837.84
2019-03-29T03:51:09.594Z,100831.59
2019-03-29T03:51:47.558Z,100836.09
2019-03-29T03:52:24.405Z,100832.34
2019-03-29T03:53:01.550Z,100834.34
2019-03-29T03:53:38.863Z,100833.16
2019-03-29T03:54:18.708Z,100832.27
2019-03-29T03:54:56.223Z,100827.71
2019-03-29T03:55:35.084Z,100828.75
2019-03-29T03:56:12.738Z,100832.74
2019-03-29T03:56:51.100Z,100828.42
2019-03-29T03:57:42.956Z,100832.27
2019-03-29T03:58:22.676Z,100832.41
2019-03-29T03:59:01.959Z,100830.48
2019-03-29T03:59:39.712Z,100829.92
2019-03-29T04:00:17.761Z,100829.45
2019-03-29T04:01:01.829Z,100831.93
2019-03-29T04:01:42.778Z,100831.93
2019-03-29T04:02:20.049Z,100825.54
2019-03-29T04:02:57.360Z,100829.38
2019-03-29T04:03:34.155Z,100826.66
2019-03-29T04:04:11.542Z,100832.58
2019-03-29T04:04:48.690Z,100820.58
2019-03-29T04:05:25.358Z,100829.21
2019-03-29T04:06:03.050Z,100825.84
2019-03-29T04:06:59.080Z,100822.27
2019-03-29T04:07:36.367Z,100819.94
2019-03-29T04:08:16.122Z,100818.46
2019-03-29T04:08:53.117Z,100818.89
2019-03-29T04:09:48.020Z,100810.94
2019-03-29T04:10:11.914Z,100818.57
2019-03-29T04:10:50.158Z,100815.03
2019-03-29T04:11:29.247Z,100814.84
2019-03-29T04:12:15.135Z,100817.34
2019-03-29T04:12:55.267Z,100819.45
2019-03-29T04:13:39.732Z,100819.31
2019-03-29T04:14:16.401Z,100816.99
2019-03-29T04:14:53.595Z,100816.13
2019-03-29T04:15:30.693Z,100817.82
2019-03-29T04:16:07.216Z,100816.87
2019-03-29T04:16:45.042Z,100820.78
2019-03-29T04:17:22.200Z,100821.69
2019-03-29T04:18:03.612Z,100814.17
2019-03-29T04:18:40.855Z,100815.09
2019-03-29T04:19:17.361Z,100815.33
2019-03-29T04:19:54.459Z,100812.59
2019-03-29T04:20:32.268Z,100817.25
2019-03-29T04:21:08.833Z,100818.31
2019-03-29T04:21:45.449Z,100811.80
2019-03-29T04:22:27.123Z,100806.91
2019-03-29T04:23:03.669Z,100814.40
2019-03-29T04:23:40.192Z,100810.31
2019-03-29T04:24:16.764Z,100810.08
2019-03-29T04:24:53.428Z,100816.00
2019-03-29T04:25:29.957Z,100809.84
2019-03-29T04:26:06.767Z,100811.19
2019-03-29T04:26:43.867Z,100814.25
2019-03-29T04:27:23.188Z,100814.09
2019-03-29T04:28:01.392Z,100817.72
2019-03-29T04:28:38.115Z,100816.13
2019-03-29T04:29:15.321Z,100821.08
2019-03-29T04:29:51.991Z,100822.08
2019-03-29T04:30:29.417Z,100824.91
2019-03-29T04:31:15.961Z,100827.05
2019-03-29T04:31:52.572Z,100824.42
2019-03-29T04:32:29.113Z,100825.75
2019-03-29T04:33:10.866Z,100822.72
2019-03-29T04:33:44.722Z,100823.95
2019-03-29T04:34:21.667Z,100826.08
2019-03-29T04:35:01.084Z,100821.59
2019-03-29T04:35:37.807Z,100821.12
2019-03-29T04:36:17.858Z,100822.42
2019-03-29T04:36:55.459Z,100820.42
2019-03-29T04:37:35.850Z,100818.16
2019-03-29T04:38:15.000Z,100819.92
2019-03-29T04:38:51.628Z,100815.63
2019-03-29T04:39:28.173Z,100815.89
2019-03-29T04:40:08.711Z,100813.54
2019-03-29T04:40:44.563Z,100819.20
2019-03-29T04:41:23.561Z,100818.27
2019-03-29T04:42:19.856Z,100813.72
2019-03-29T04:42:56.633Z,100815.48
2019-03-29T04:43:35.016Z,100815.44
2019-03-29T04:44:12.606Z,100816.11
2019-03-29T04:44:50.201Z,100816.11
2019-03-29T04:45:27.148Z,100813.37
2019-03-29T04:46:05.182Z,100814.52
2019-03-29T04:46:41.847Z,100815.41
2019-03-29T04:47:18.692Z,100808.52
2019-03-29T04:47:56.158Z,100814.30
2019-03-29T04:48:37.292Z,100819.59
2019-03-29T04:49:17.131Z,100812.31
2019-03-29T04:49:58.056Z,100810.91
2019-03-29T04:50:37.146Z,100810.77
2019-03-29T04:51:15.013Z,100811.76
2019-03-29T04:51:51.609Z,100808.96
2019-03-29T04:52:46.589Z,100808.45
2019-03-29T04:53:23.639Z,100810.94
2019-03-29T04:54:00.328Z,100805.44
2019-03-29T04:54:42.674Z,100803.50
2019-03-29T04:55:26.186Z,100805.28
2019-03-29T04:56:04.936Z,100803.06
2019-03-29T04:57:03.428Z,100806.06
2019-03-29T04:57:39.966Z,100804.14
2019-03-29T04:58:17.361Z,100802.07
2019-03-29T04:58:54.591Z,100798.73
2019-03-29T04:59:32.587Z,100803.37
2019-03-29T05:00:27.863Z,100795.63
2019-03-29T05:01:05.077Z,100799.14
2019-03-29T05:01:41.564Z,100795.68
2019-03-29T05:02:18.789Z,100796.75
2019-03-29T05:02:58.702Z,100795.53
2019-03-29T05:03:36.274Z,100795.44
2019-03-29T05:04:14.126Z,100793.70
2019-03-29T05:04:51.879Z,100796.56
2019-03-29T05:05:32.620Z,100790.64
2019-03-29T05:06:13.905Z,100791.77
2019-03-29T05:06:54.748Z,100789.37
2019-03-29T05:07:31.552Z,100792.66
2019-03-29T05:08:08.064Z,100789.94
2019-03-29T05:09:09.259Z,100790.17
2019-03-29T05:09:45.761Z,100790.17
2019-03-29T05:10:22.461Z,100785.44
2019-03-29T05:10:59.258Z,100783.20
2019-03-29T05:11:36.540Z,100785.03
2019-03-29T05:12:13.719Z,100784.70
2019-03-29T05:12:52.798Z,100781.69
2019-03-29T05:13:29.466Z,100783.76
2019-03-29T05:14:24.268Z,100778.79
2019-03-29T05:15:02.160Z,100777.95
2019-03-29T05:15:40.156Z,100780.46
2019-03-29T05:16:21.019Z,100786.19
2019-03-29T05:17:02.743Z,100781.77
2019-03-29T05:17:43.790Z,100783.13
2019-03-29T05:18:20.268Z,100783.46
2019-03-29T05:18:57.362Z,100786.19
2019-03-29T05:19:36.512Z,100783.80
2019-03-29T05:20:13.357Z,100789.23
2019-03-29T05:20:49.850Z,100785.72
2019-03-29T05:21:26.551Z,100781.39
2019-03-29T05:22:26.722Z,100784.69
2019-03-29T05:23:03.315Z,100784.12
2019-03-29T05:23:39.928Z,100786.05
2019-03-29T05:24:21.592Z,100781.39
2019-03-29T05:24:58.213Z,100782.76
2019-03-29T05:25:37.418Z,100778.44
2019-03-29T05:26:15.370Z,100778.67
2019-03-29T05:26:51.986Z,100773.89
2019-03-29T05:27:28.634Z,100776.28
2019-03-29T05:28:07.685Z,100778.20
2019-03-29T05:28:46.360Z,100771.16
2019-03-29T05:29:25.913Z,100767.08
2019-03-29T05:30:03.486Z,100772.63
2019-03-29T05:30:41.069Z,100768.83
2019-03-29T05:31:19.492Z,100764.22
2019-03-29T05:31:55.977Z,100757.70
2019-03-29T05:32:32.706Z,100757.70
2019-03-29T05:33:12.394Z,100754.40
2019-03-29T05:33:49.294Z,100748.19
2019-03-29T05:34:48.063Z,100748.44
2019-03-29T05:35:24.778Z,100749.53
2019-03-29T05:36:03.020Z,100748.92
2019-03-29T05:36:41.013Z,100750.83
2019-03-29T05:37:17.616Z,100748.44
2019-03-29T05:38:05.064Z,100748.77
2019-03-29T05:38:41.704Z,100747.17
2019-03-29T05:39:21.063Z,100749.20
2019-03-29T05:39:59.646Z,100746.25
2019-03-29T05:40:36.355Z,100751.38
2019-03-29T05:41:14.409Z,100742.16
2019-03-29T05:41:51.522Z,100740.34
2019-03-29T05:42:28.744Z,100738.97
2019-03-29T05:43:10.960Z,100741.36
2019-03-29T05:43:48.010Z,100728.53
2019-03-29T05:44:26.387Z,100727.17
2019-03-29T05:45:02.978Z,100732.84
2019-03-29T05:45:44.967Z,100727.40
2019-03-29T05:46:22.754Z,100729.22
2019-03-29T05:47:02.659Z,100721.61
2019-03-29T05:47:41.318Z,100722.41
2019-03-29T05:48:18.280Z,100720.81
2019-03-29T05:48:58.626Z,100720.25
2019-03-29T05:49:36.094Z,100716.39
2019-03-29T05:50:29.911Z,100718.55
2019-03-29T05:51:07.238Z,100710.69
2019-03-29T05:51:44.557Z,100708.98
2019-03-29T05:52:25.455Z,100705.84
2019-03-29T05:53:12.119Z,100705.00
2019-03-29T05:53:55.911Z,100697.10
2019-03-29T05:54:32.603Z,100703.97
2019-03-29T05:55:12.416Z,100695.80
2019-03-29T05:55:49.790Z,100691.06
2019-03-29T05:56:29.231Z,100690.52
2019-03-29T05:57:09.964Z,100695.22
2019-03-29T05:57:47.316Z,100689.06
2019-03-29T05:58:24.838Z,100686.09
2019-03-29T05:59:01.869Z,100687.50
2019-03-29T05:59:38.884Z,100689.75
2019-03-29T06:00:19.661Z,100687.94
2019-03-29T06:00:57.047Z,100681.78
2019-03-29T06:01:34.207Z,100685.65
2019-03-29T06:02:15.720Z,100687.00
2019-03-29T06:02:55.155Z,100684.14
2019-03-29T06:03:33.536Z,100691.08
2019-03-29T06:04:15.164Z,100682.05
2019-03-29T06:04:51.883Z,100684.00
2019-03-29T06:05:33.424Z,100679.70
2019-03-29T06:06:13.042Z,100678.45
2019-03-29T06:06:50.319Z,100674.00
2019-03-29T06:07:27.596Z,100677.43
2019-03-29T06:08:05.593Z,100670.34
2019-03-29T06:08:42.116Z,100669.20
2019-03-29T06:09:20.486Z,100664.37
2019-03-29T06:09:58.647Z,100660.25
2019-03-29T06:10:48.435Z,100657.50
2019-03-29T06:11:17.855Z,100658.62
2019-03-29T06:11:54.517Z,100659.15
2019-03-29T06:12:35.866Z,100654.47
2019-03-29T06:13:13.362Z,100656.05
2019-03-29T06:13:51.181Z,100652.38
2019-03-29T06:14:29.209Z,100652.39
2019-03-29T06:15:12.645Z,100648.33
2019-03-29T06:15:49.973Z,100644.50
2019-03-29T06:16:38.421Z,100643.39
2019-03-29T06:17:19.133Z,100639.33
2019-03-29T06:17:56.257Z,100643.68
2019-03-29T06:18:33.332Z,100646.91
2019-03-29T06:19:09.923Z,100640.33
2019-03-29T06:19:46.440Z,100645.79
2019-03-29T06:20:22.919Z,100650.37
2019-03-29T06:20:59.465Z,100640.36
2019-03-29T06:21:36.584Z,100637.19
2019-03-29T06:22:13.486Z,100632.16
2019-03-29T06:22:50.138Z,100633.76
2019-03-29T06:23:28.150Z,100627.97
2019-03-29T06:24:07.563Z,100626.49
2019-03-29T06:24:44.158Z,100629.35
2019-03-29T06:25:20.795Z,100619.22
2019-03-29T06:25:58.897Z,100619.00
2019-03-29T06:26:44.277Z,100616.02
2019-03-29T06:27:22.900Z,100616.70
2019-03-29T06:27:59.481Z,100613.98
2019-03-29T06:28:38.367Z,100612.70
2019-03-29T06:29:17.435Z,100608.50
2019-03-29T06:29:56.624Z,100606.46
2019-03-29T06:30:35.407Z,100601.68
2019-03-29T06:31:15.363Z,100603.75
2019-03-29T06:31:52.325Z,100593.06
2019-03-29T06:32:28.884Z,100592.59
2019-03-29T06:33:09.976Z,100591.43
2019-03-29T06:33:49.305Z,100589.48
2019-03-29T06:34:30.017Z,100591.98
2019-03-29T06:35:07.135Z,100587.06
2019-03-29T06:35:45.176Z,100584.98
2019-03-29T06:36:22.745Z,100583.83
2019-03-29T06:37:03.875Z,100580.72
2019-03-29T06:37:44.139Z,100582.64
2019-03-29T06:38:40.837Z,100578.82
2019-03-29T06:39:17.388Z,100580.23
2019-03-29T06:39:59.446Z,100573.83
2019-03-29T06:40:40.326Z,100573.83
2019-03-29T06:41:21.189Z,100576.13
2019-03-29T06:42:20.740Z,100574.53
2019-03-29T06:42:57.303Z,100575.68
2019-03-29T06:43:34.510Z,100576.19
2019-03-29T06:44:14.006Z,100579.89
2019-03-29T06:44:52.400Z,100569.37
2019-03-29T06:45:31.407Z,100576.03
2019-03-29T06:46:20.138Z,100577.91
2019-03-29T06:47:00.136Z,100576.08
2019-03-29T06:47:40.158Z,100576.66
2019-03-29T06:48:17.997Z,100570.39
2019-03-29T06:48:56.135Z,100577.25
2019-03-29T06:49:32.764Z,100565.98
2019-03-29T06:50:14.243Z,100566.27
2019-03-29T06:50:53.851Z,100569.95
2019-03-29T06:51:31.119Z,100561.78
2019-03-29T06:52:11.406Z,100561.09
2019-03-29T06:52:48.226Z,100557.83
2019-03-29T06:53:25.665Z,100555.97
2019-03-29T06:54:02.396Z,100549.84
2019-03-29T06:54:39.073Z,100550.78
2019-03-29T06:55:16.765Z,100551.39
2019-03-29T06:55:54.770Z,100542.17
2019-03-29T06:56:32.206Z,100541.98
2019-03-29T06:57:09.505Z,100536.55
2019-03-29T06:57:48.139Z,100536.80
2019-03-29T06:58:28.165Z,100536.58
2019-03-29T06:59:06.148Z,100536.25
2019-03-29T06:59:44.436Z,100538.42
2019-03-29T07:00:21.694Z,100535.02
2019-03-29T07:01:17.925Z,100530.38
2019-03-29T07:02:00.793Z,100532.78
2019-03-29T07:02:39.626Z,100533.34
2019-03-29T07:03:16.247Z,100529.59
2019-03-29T07:03:53.571Z,100530.03
2019-03-29T07:04:35.518Z,100533.22
2019-03-29T07:05:13.033Z,100532.65
2019-03-29T07:05:49.813Z,100529.92
2019-03-29T07:06:31.297Z,100528.69
2019-03-29T07:07:11.495Z,100529.13
2019-03-29T07:07:58.172Z,100529.91
2019-03-29T07:08:36.245Z,100531.16
2019-03-29T07:09:21.465Z,100531.35
2019-03-29T07:09:58.130Z,100529.52
2019-03-29T07:10:34.699Z,100533.17
2019-03-29T07:11:17.618Z,100523.81
2019-03-29T07:11:51.442Z,100526.29
2019-03-29T07:12:28.341Z,100527.37
2019-03-29T07:13:06.568Z,100520.30
2019-03-29T07:13:57.201Z,100519.88
2019-03-29T07:14:26.152Z,100526.95
2019-03-29T07:15:04.511Z,100514.82
2019-03-29T07:15:40.981Z,100517.91
2019-03-29T07:16:17.826Z,100519.49
2019-03-29T07:16:56.279Z,100517.68
2019-03-29T07:17:33.378Z,100518.16
2019-03-29T07:18:12.312Z,100519.27
2019-03-29T07:18:49.889Z,100524.06
2019-03-29T07:19:32.141Z,100518.50